sensor_id;sensor_type;location;lat;lon;timestamp;pressure;altitude;pressure_sealevel;temperature;humidity
18900;BME280;9582;52.018;6.306;2023-02-28T00:00:07;103056.13;;;-1.29;100.00
18900;BME280;9582;52.018;6.306;2023-02-28T00:02:37;103060.59;;;-1.23;100.00
18900;BME280;9582;52.018;6.306;2023-02-28T00:05:05;103068.59;;;-1.16;100.00
18900;BME280;9582;52.018;6.306;2023-02-28T00:07:32;103054.41;;;-1.07;100.00
18900;BME280;9582;52.018;6.306;2023-02-28T00:09:59;103065.06;;;-0.97;100.00
18900;BME280;9582;52.018;6.306;2023-02-28T00:12:26;103050.94;;;-0.86;100.00
18900;BME280;9582;52.018;6.306;2023-02-28T00:14:53;103058.22;;;-0.74;100.00
18900;BME280;9582;52.018;6.306;2023-02-28T00:17:20;103054.16;;;-0.68;100.00
18900;BME280;9582;52.018;6.306;2023-02-28T00:19:48;103051.78;;;-0.63;100.00
18900;BME280;9582;52.018;6.306;2023-02-28T00:22:16;103052.66;;;-0.63;100.00
18900;BME280;9582;52.018;6.306;2023-02-28T00:24:42;103049.22;;;-0.63;100.00
18900;BME280;9582;52.018;6.306;2023-02-28T00:27:09;103055.38;;;-0.58;100.00
18900;BME280;9582;52.018;6.306;2023-02-28T00:29:36;103050.34;;;-0.55;100.00
18900;BME280;9582;52.018;6.306;2023-02-28T00:32:03;103057.16;;;-0.57;100.00
18900;BME280;9582;52.018;6.306;2023-02-28T00:34:30;103051.94;;;-0.59;100.00
18900;BME280;9582;52.018;6.306;2023-02-28T00:36:57;103058.06;;;-0.55;100.00
18900;BME280;9582;52.018;6.306;2023-02-28T00:39:24;103052.13;;;-0.54;100.00
18900;BME280;9582;52.018;6.306;2023-02-28T00:41:51;103058.09;;;-0.53;100.00
18900;BME280;9582;52.018;6.306;2023-02-28T00:44:17;103050.81;;;-0.43;100.00
18900;BME280;9582;52.018;6.306;2023-02-28T00:46:46;103054.53;;;-0.35;100.00
18900;BME280;9582;52.018;6.306;2023-02-28T00:49:13;103048.81;;;-0.26;100.00
18900;BME280;9582;52.018;6.306;2023-02-28T00:51:41;103049.59;;;-0.29;100.00
18900;BME280;9582;52.018;6.306;2023-02-28T00:54:09;103055.56;;;-0.30;100.00
18900;BME280;9582;52.018;6.306;2023-02-28T00:56:35;103049.50;;;-0.32;100.00
18900;BME280;9582;52.018;6.306;2023-02-28T00:59:03;103049.59;;;-0.29;100.00
18900;BME280;9582;52.018;6.306;2023-02-28T01:01:30;103054.78;;;-0.27;100.00
18900;BME280;9582;52.018;6.306;2023-02-28T01:03:57;103045.41;;;-0.25;100.00
18900;BME280;9582;52.018;6.306;2023-02-28T01:06:24;103042.81;;;-0.27;100.00
18900;BME280;9582;52.018;6.306;2023-02-28T01:08:50;103041.81;;;-0.30;100.00
18900;BME280;9582;52.018;6.306;2023-02-28T01:11:18;103048.59;;;-0.32;100.00
18900;BME280;9582;52.018;6.306;2023-02-28T01:13:46;103054.00;;;-0.25;100.00
18900;BME280;9582;52.018;6.306;2023-02-28T01:16:13;103058.50;;;-0.19;100.00
18900;BME280;9582;52.018;6.306;2023-02-28T01:18:40;103053.53;;;-0.15;100.00
18900;BME280;9582;52.018;6.306;2023-02-28T01:21:10;103060.50;;;-0.11;100.00
18900;BME280;9582;52.018;6.306;2023-02-28T01:23:37;103063.91;;;-0.12;100.00
18900;BME280;9582;52.018;6.306;2023-02-28T01:26:05;103056.03;;;-0.16;100.00
18900;BME280;9582;52.018;6.306;2023-02-28T01:28:33;103053.66;;;-0.10;100.00
18900;BME280;9582;52.018;6.306;2023-02-28T01:31:00;103053.88;;;-0.04;100.00
18900;BME280;9582;52.018;6.306;2023-02-28T01:33:27;103056.50;;;-0.03;100.00
18900;BME280;9582;52.018;6.306;2023-02-28T01:35:57;103051.25;;;-0.06;100.00
18900;BME280;9582;52.018;6.306;2023-02-28T01:38:24;103059.03;;;-0.04;100.00
18900;BME280;9582;52.018;6.306;2023-02-28T01:40:53;103054.75;;;-0.04;100.00
18900;BME280;9582;52.018;6.306;2023-02-28T01:43:22;103063.38;;;-0.03;100.00
18900;BME280;9582;52.018;6.306;2023-02-28T01:45:51;103053.00;;;-0.05;100.00
18900;BME280;9582;52.018;6.306;2023-02-28T01:48:19;103050.44;;;-0.05;100.00
18900;BME280;9582;52.018;6.306;2023-02-28T01:50:47;103052.31;;;-0.01;100.00
18900;BME280;9582;52.018;6.306;2023-02-28T01:53:18;103044.69;;;0.03;100.00
18900;BME280;9582;52.018;6.306;2023-02-28T01:55:48;103045.59;;;0.05;100.00
18900;BME280;9582;52.018;6.306;2023-02-28T01:58:16;103053.44;;;0.08;100.00
18900;BME280;9582;52.018;6.306;2023-02-28T02:00:42;103044.06;;;0.10;100.00
18900;BME280;9582;52.018;6.306;2023-02-28T02:03:12;103045.06;;;0.15;100.00
18900;BME280;9582;52.018;6.306;2023-02-28T02:05:41;103058.16;;;0.21;100.00
18900;BME280;9582;52.018;6.306;2023-02-28T02:08:16;103044.47;;;0.22;100.00
18900;BME280;9582;52.018;6.306;2023-02-28T02:10:45;103047.06;;;0.23;100.00
18900;BME280;9582;52.018;6.306;2023-02-28T02:13:22;103039.34;;;0.23;100.00
18900;BME280;9582;52.018;6.306;2023-02-28T02:16:00;103039.44;;;0.25;100.00
18900;BME280;9582;52.018;6.306;2023-02-28T02:18:38;103048.06;;;0.27;100.00
18900;BME280;9582;52.018;6.306;2023-02-28T02:21:35;103032.59;;;0.25;100.00
18900;BME280;9582;52.018;6.306;2023-02-28T02:27:22;103032.53;;;0.24;100.00
18900;BME280;9582;52.018;6.306;2023-02-28T02:30:07;103035.09;;;0.24;100.00
18900;BME280;9582;52.018;6.306;2023-02-28T02:33:06;103032.53;;;0.24;100.00
18900;BME280;9582;52.018;6.306;2023-02-28T02:35:42;103030.03;;;0.25;100.00
18900;BME280;9582;52.018;6.306;2023-02-28T02:38:19;103029.13;;;0.25;100.00
18900;BME280;9582;52.018;6.306;2023-02-28T02:41:00;103027.38;;;0.24;100.00
18900;BME280;9582;52.018;6.306;2023-02-28T02:43:33;103041.06;;;0.23;100.00
18900;BME280;9582;52.018;6.306;2023-02-28T02:46:04;103034.19;;;0.22;100.00
18900;BME280;9582;52.018;6.306;2023-02-28T02:48:34;103031.66;;;0.23;100.00
18900;BME280;9582;52.018;6.306;2023-02-28T02:51:06;103033.34;;;0.23;100.00
18900;BME280;9582;52.018;6.306;2023-02-28T02:53:42;103031.53;;;0.20;100.00
18900;BME280;9582;52.018;6.306;2023-02-28T02:56:12;103040.88;;;0.17;100.00
18900;BME280;9582;52.018;6.306;2023-02-28T02:58:42;103038.25;;;0.15;100.00
18900;BME280;9582;52.018;6.306;2023-02-28T03:01:12;103038.25;;;0.15;100.00
18900;BME280;9582;52.018;6.306;2023-02-28T03:03:41;103041.59;;;0.13;100.00
18900;BME280;9582;52.018;6.306;2023-02-28T03:06:09;103043.34;;;0.14;100.00
18900;BME280;9582;52.018;6.306;2023-02-28T03:08:37;103033.09;;;0.15;100.00
18900;BME280;9582;52.018;6.306;2023-02-28T03:11:05;103038.31;;;0.17;100.00
18900;BME280;9582;52.018;6.306;2023-02-28T03:13:48;103042.56;;;0.16;100.00
18900;BME280;9582;52.018;6.306;2023-02-28T03:16:34;103046.94;;;0.19;100.00
18900;BME280;9582;52.018;6.306;2023-02-28T03:19:24;103037.56;;;0.21;100.00
18900;BME280;9582;52.018;6.306;2023-02-28T03:22:04;103034.28;;;0.25;100.00
18900;BME280;9582;52.018;6.306;2023-02-28T03:24:43;103036.06;;;0.27;100.00
18900;BME280;9582;52.018;6.306;2023-02-28T03:27:17;103036.28;;;0.33;100.00
18900;BME280;9582;52.018;6.306;2023-02-28T03:29:47;103028.66;;;0.36;100.00
18900;BME280;9582;52.018;6.306;2023-02-28T03:32:19;103034.81;;;0.41;100.00
18900;BME280;9582;52.018;6.306;2023-02-28T03:34:51;103028.00;;;0.43;100.00
18900;BME280;9582;52.018;6.306;2023-02-28T03:37:24;103024.66;;;0.46;100.00
18900;BME280;9582;52.018;6.306;2023-02-28T03:39:55;103014.47;;;0.49;100.00
18900;BME280;9582;52.018;6.306;2023-02-28T03:42:26;103015.38;;;0.51;100.00
18900;BME280;9582;52.018;6.306;2023-02-28T03:44:56;103024.97;;;0.55;100.00
18900;BME280;9582;52.018;6.306;2023-02-28T03:47:27;103020.81;;;0.60;100.00
18900;BME280;9582;52.018;6.306;2023-02-28T03:49:59;103021.09;;;0.68;100.00
18900;BME280;9582;52.018;6.306;2023-02-28T03:52:40;103012.59;;;0.72;100.00
18900;BME280;9582;52.018;6.306;2023-02-28T03:55:11;103010.84;;;0.71;100.00
18900;BME280;9582;52.018;6.306;2023-02-28T03:57:44;103011.72;;;0.71;100.00
18900;BME280;9582;52.018;6.306;2023-02-28T04:00:20;103016.97;;;0.74;100.00
18900;BME280;9582;52.018;6.306;2023-02-28T04:02:47;103005.06;;;0.78;100.00
18900;BME280;9582;52.018;6.306;2023-02-28T04:05:18;103009.41;;;0.79;100.00
18900;BME280;9582;52.018;6.306;2023-02-28T04:07:46;103004.25;;;0.79;100.00
18900;BME280;9582;52.018;6.306;2023-02-28T04:10:14;103005.03;;;0.76;100.00
18900;BME280;9582;52.018;6.306;2023-02-28T04:12:41;103003.22;;;0.74;100.00
18900;BME280;9582;52.018;6.306;2023-02-28T04:15:08;103004.06;;;0.73;100.00
18900;BME280;9582;52.018;6.306;2023-02-28T04:17:35;103003.19;;;0.72;100.00
18900;BME280;9582;52.018;6.306;2023-02-28T04:20:02;103012.56;;;0.70;100.00
18900;BME280;9582;52.018;6.306;2023-02-28T04:22:34;103015.97;;;0.69;100.00
18900;BME280;9582;52.018;6.306;2023-02-28T04:25:02;103009.91;;;0.67;100.00
18900;BME280;9582;52.018;6.306;2023-02-28T04:27:29;103008.97;;;0.65;100.00
18900;BME280;9582;52.018;6.306;2023-02-28T04:29:55;103010.72;;;0.66;100.00
18900;BME280;9582;52.018;6.306;2023-02-28T04:32:22;103014.88;;;0.63;100.00
18900;BME280;9582;52.018;6.306;2023-02-28T04:34:49;103016.53;;;0.59;100.00
18900;BME280;9582;52.018;6.306;2023-02-28T04:37:15;103015.56;;;0.57;100.00
18900;BME280;9582;52.018;6.306;2023-02-28T04:39:42;103010.44;;;0.57;100.00
18900;BME280;9582;52.018;6.306;2023-02-28T04:42:10;103013.00;;;0.57;100.00
18900;BME280;9582;52.018;6.306;2023-02-28T04:44:37;103019.00;;;0.56;100.00
18900;BME280;9582;52.018;6.306;2023-02-28T04:47:04;103018.06;;;0.54;100.00
18900;BME280;9582;52.018;6.306;2023-02-28T04:49:31;103027.41;;;0.50;100.00
18900;BME280;9582;52.018;6.306;2023-02-28T04:51:58;103021.19;;;0.44;100.00
18900;BME280;9582;52.018;6.306;2023-02-28T04:54:25;103029.63;;;0.40;100.00
18900;BME280;9582;52.018;6.306;2023-02-28T04:56:51;103030.28;;;0.34;100.00
18900;BME280;9582;52.018;6.306;2023-02-28T04:59:19;103031.84;;;0.29;100.00
18900;BME280;9582;52.018;6.306;2023-02-28T05:01:47;103036.00;;;0.26;100.00
18900;BME280;9582;52.018;6.306;2023-02-28T05:04:14;103033.41;;;0.24;100.00
18900;BME280;9582;52.018;6.306;2023-02-28T05:06:41;103035.06;;;0.22;100.00
18900;BME280;9582;52.018;6.306;2023-02-28T05:09:07;103045.28;;;0.21;100.00
18900;BME280;9582;52.018;6.306;2023-02-28T05:11:36;103047.84;;;0.21;100.00
18900;BME280;9582;52.018;6.306;2023-02-28T05:14:05;103041.91;;;0.22;100.00
18900;BME280;9582;52.018;6.306;2023-02-28T05:16:33;103046.06;;;0.18;100.00
18900;BME280;9582;52.018;6.306;2023-02-28T05:19:00;103040.78;;;0.14;100.00
18900;BME280;9582;52.018;6.306;2023-02-28T05:21:29;103049.19;;;0.10;100.00
18900;BME280;9582;52.018;6.306;2023-02-28T05:23:56;103043.94;;;0.07;100.00
18900;BME280;9582;52.018;6.306;2023-02-28T05:26:23;103037.06;;;0.06;100.00
18900;BME280;9582;52.018;6.306;2023-02-28T05:28:50;103045.72;;;0.08;100.00
18900;BME280;9582;52.018;6.306;2023-02-28T05:31:17;103044.88;;;0.09;100.00
18900;BME280;9582;52.018;6.306;2023-02-28T05:33:45;103053.44;;;0.08;100.00
18900;BME280;9582;52.018;6.306;2023-02-28T05:36:11;103049.09;;;0.07;100.00
18900;BME280;9582;52.018;6.306;2023-02-28T05:38:38;103054.31;;;0.08;100.00
18900;BME280;9582;52.018;6.306;2023-02-28T05:41:06;103058.59;;;0.09;100.00
18900;BME280;9582;52.018;6.306;2023-02-28T05:43:33;103057.72;;;0.09;100.00
18900;BME280;9582;52.018;6.306;2023-02-28T05:46:02;103058.56;;;0.08;100.00
18900;BME280;9582;52.018;6.306;2023-02-28T05:48:29;103063.53;;;0.03;100.00
18900;BME280;9582;52.018;6.306;2023-02-28T05:50:58;103061.75;;;0.00;100.00
18900;BME280;9582;52.018;6.306;2023-02-28T05:53:24;103068.66;;;0.02;100.00
18900;BME280;9582;52.018;6.306;2023-02-28T05:55:51;103066.78;;;-0.03;100.00
18900;BME280;9582;52.018;6.306;2023-02-28T05:58:18;103058.16;;;-0.05;100.00
18900;BME280;9582;52.018;6.306;2023-02-28T06:00:44;103058.16;;;-0.05;100.00
18900;BME280;9582;52.018;6.306;2023-02-28T06:03:11;103065.75;;;-0.08;100.00
18900;BME280;9582;52.018;6.306;2023-02-28T06:05:37;103068.22;;;-0.11;100.00
18900;BME280;9582;52.018;6.306;2023-02-28T06:08:06;103070.69;;;-0.14;100.00
18900;BME280;9582;52.018;6.306;2023-02-28T06:10:33;103074.69;;;-0.22;100.00
18900;BME280;9582;52.018;6.306;2023-02-28T06:13:00;103084.06;;;-0.24;100.00
18900;BME280;9582;52.018;6.306;2023-02-28T06:15:27;103085.81;;;-0.23;100.00
18900;BME280;9582;52.018;6.306;2023-02-28T06:17:54;103085.59;;;-0.29;100.00
18900;BME280;9582;52.018;6.306;2023-02-28T06:20:22;103087.97;;;-0.33;100.00
18900;BME280;9582;52.018;6.306;2023-02-28T06:22:49;103089.63;;;-0.35;100.00
18900;BME280;9582;52.018;6.306;2023-02-28T06:25:17;103087.22;;;-0.31;100.00
18900;BME280;9582;52.018;6.306;2023-02-28T06:27:44;103095.22;;;-0.23;100.00
18900;BME280;9582;52.018;6.306;2023-02-28T06:30:11;103092.56;;;-0.25;100.00
18900;BME280;9582;52.018;6.306;2023-02-28T06:32:38;103089.19;;;-0.24;100.00
18900;BME280;9582;52.018;6.306;2023-02-28T06:35:05;103101.25;;;-0.23;100.00
18900;BME280;9582;52.018;6.306;2023-02-28T06:37:32;103101.31;;;-0.20;100.00
18900;BME280;9582;52.018;6.306;2023-02-28T06:39:58;103098.13;;;-0.14;100.00
18900;BME280;9582;52.018;6.306;2023-02-28T06:42:26;103094.88;;;-0.09;100.00
18900;BME280;9582;52.018;6.306;2023-02-28T06:44:54;103099.38;;;-0.03;100.00
18900;BME280;9582;52.018;6.306;2023-02-28T06:47:21;103095.28;;;0.04;100.00
18900;BME280;9582;52.018;6.306;2023-02-28T06:49:47;103101.47;;;0.09;100.00
18900;BME280;9582;52.018;6.306;2023-02-28T06:52:14;103108.59;;;0.16;100.00
18900;BME280;9582;52.018;6.306;2023-02-28T06:54:41;103102.81;;;0.23;100.00
18900;BME280;9582;52.018;6.306;2023-02-28T06:57:07;103102.19;;;0.30;100.00
18900;BME280;9582;52.018;6.306;2023-02-28T06:59:35;103099.00;;;0.37;100.00
18900;BME280;9582;52.018;6.306;2023-02-28T07:02:02;103100.25;;;0.48;100.00
18900;BME280;9582;52.018;6.306;2023-02-28T07:04:29;103107.38;;;0.56;100.00
18900;BME280;9582;52.018;6.306;2023-02-28T07:06:55;103102.50;;;0.64;100.00
18900;BME280;9582;52.018;6.306;2023-02-28T07:09:22;103106.19;;;0.72;100.00
18900;BME280;9582;52.018;6.306;2023-02-28T07:11:49;103104.78;;;0.82;100.00
18900;BME280;9582;52.018;6.306;2023-02-28T07:14:15;103103.25;;;0.88;100.00
18900;BME280;9582;52.018;6.306;2023-02-28T07:16:43;103106.03;;;0.94;100.00
18900;BME280;9582;52.018;6.306;2023-02-28T07:19:10;103106.22;;;1.00;100.00
18900;BME280;9582;52.018;6.306;2023-02-28T07:21:37;103104.66;;;1.05;100.00
18900;BME280;9582;52.018;6.306;2023-02-28T07:24:04;103108.22;;;1.10;100.00
18900;BME280;9582;52.018;6.306;2023-02-28T07:26:30;103114.38;;;1.14;100.00
18900;BME280;9582;52.018;6.306;2023-02-28T07:28:59;103111.88;;;1.17;100.00
18900;BME280;9582;52.018;6.306;2023-02-28T07:31:25;103117.31;;;1.26;100.00
18900;BME280;9582;52.018;6.306;2023-02-28T07:33:53;103114.88;;;1.31;100.00
18900;BME280;9582;52.018;6.306;2023-02-28T07:36:21;103119.22;;;1.33;100.00
18900;BME280;9582;52.018;6.306;2023-02-28T07:38:48;103113.28;;;1.36;100.00
18900;BME280;9582;52.018;6.306;2023-02-28T07:41:16;103112.47;;;1.37;100.00
18900;BME280;9582;52.018;6.306;2023-02-28T07:43:43;103103.91;;;1.38;100.00
18900;BME280;9582;52.018;6.306;2023-02-28T07:46:12;103112.59;;;1.41;100.00
18900;BME280;9582;52.018;6.306;2023-02-28T07:48:40;103117.81;;;1.43;100.00
18900;BME280;9582;52.018;6.306;2023-02-28T07:51:08;103121.31;;;1.45;100.00
18900;BME280;9582;52.018;6.306;2023-02-28T07:53:35;103115.31;;;1.46;100.00
18900;BME280;9582;52.018;6.306;2023-02-28T07:56:02;103116.31;;;1.51;100.00
18900;BME280;9582;52.018;6.306;2023-02-28T07:58:30;103114.66;;;1.53;100.00
18900;BME280;9582;52.018;6.306;2023-02-28T08:00:57;103110.44;;;1.55;100.00
18900;BME280;9582;52.018;6.306;2023-02-28T08:03:24;103115.69;;;1.58;100.00
18900;BME280;9582;52.018;6.306;2023-02-28T08:05:50;103119.25;;;1.63;100.00
18900;BME280;9582;52.018;6.306;2023-02-28T08:08:19;103119.28;;;1.64;100.00
18900;BME280;9582;52.018;6.306;2023-02-28T08:10:46;103112.53;;;1.68;100.00
18900;BME280;9582;52.018;6.306;2023-02-28T08:13:12;103116.09;;;1.73;100.00
18900;BME280;9582;52.018;6.306;2023-02-28T08:15:40;103112.78;;;1.77;100.00
18900;BME280;9582;52.018;6.306;2023-02-28T08:18:07;103121.50;;;1.81;100.00
18900;BME280;9582;52.018;6.306;2023-02-28T08:20:33;103117.25;;;1.83;100.00
18900;BME280;9582;52.018;6.306;2023-02-28T08:23:00;103118.03;;;1.80;100.00
18900;BME280;9582;52.018;6.306;2023-02-28T08:25:28;103117.16;;;1.80;100.00
18900;BME280;9582;52.018;6.306;2023-02-28T08:27:54;103114.75;;;1.86;100.00
18900;BME280;9582;52.018;6.306;2023-02-28T08:30:21;103118.34;;;1.92;100.00
18900;BME280;9582;52.018;6.306;2023-02-28T08:32:47;103111.56;;;1.94;100.00
18900;BME280;9582;52.018;6.306;2023-02-28T08:35:14;103120.38;;;2.02;100.00
18900;BME280;9582;52.018;6.306;2023-02-28T08:37:41;103119.56;;;2.05;100.00
18900;BME280;9582;52.018;6.306;2023-02-28T08:40:08;103115.28;;;2.05;100.00
18900;BME280;9582;52.018;6.306;2023-02-28T08:42:36;103117.91;;;2.07;100.00
18900;BME280;9582;52.018;6.306;2023-02-28T08:45:04;103115.22;;;2.04;100.00
18900;BME280;9582;52.018;6.306;2023-02-28T08:47:30;103114.44;;;2.06;100.00
18900;BME280;9582;52.018;6.306;2023-02-28T08:49:57;103117.25;;;2.15;100.00
18900;BME280;9582;52.018;6.306;2023-02-28T08:52:24;103111.63;;;2.30;100.00
18900;BME280;9582;52.018;6.306;2023-02-28T08:54:50;103113.50;;;2.36;100.00
18900;BME280;9582;52.018;6.306;2023-02-28T08:57:17;103105.94;;;2.43;100.00
18900;BME280;9582;52.018;6.306;2023-02-28T08:59:44;103111.16;;;2.45;100.00
18900;BME280;9582;52.018;6.306;2023-02-28T09:02:12;103112.75;;;2.40;100.00
18900;BME280;9582;52.018;6.306;2023-02-28T09:04:39;103115.25;;;2.37;100.00
18900;BME280;9582;52.018;6.306;2023-02-28T09:07:06;103112.75;;;2.40;100.00
18900;BME280;9582;52.018;6.306;2023-02-28T09:09:32;103111.31;;;2.51;100.00
18900;BME280;9582;52.018;6.306;2023-02-28T09:11:59;103119.31;;;2.61;100.00
18900;BME280;9582;52.018;6.306;2023-02-28T09:14:26;103111.81;;;2.72;100.00
18900;BME280;9582;52.018;6.306;2023-02-28T09:16:54;103121.41;;;2.77;100.00
18900;BME280;9582;52.018;6.306;2023-02-28T09:19:21;103114.56;;;2.79;100.00
18900;BME280;9582;52.018;6.306;2023-02-28T09:21:48;103115.44;;;2.80;100.00
18900;BME280;9582;52.018;6.306;2023-02-28T09:24:14;103112.13;;;2.85;100.00
18900;BME280;9582;52.018;6.306;2023-02-28T09:26:41;103103.66;;;2.91;100.00
18900;BME280;9582;52.018;6.306;2023-02-28T09:29:07;103105.44;;;2.93;100.00
18900;BME280;9582;52.018;6.306;2023-02-28T09:31:34;103102.84;;;2.93;100.00
18900;BME280;9582;52.018;6.306;2023-02-28T09:34:03;103106.44;;;2.99;100.00
18900;BME280;9582;52.018;6.306;2023-02-28T09:36:30;103106.50;;;3.02;100.00
18900;BME280;9582;52.018;6.306;2023-02-28T09:38:58;103109.25;;;3.09;100.00
18900;BME280;9582;52.018;6.306;2023-02-28T09:41:26;103096.41;;;3.12;100.00
18900;BME280;9582;52.018;6.306;2023-02-28T09:43:56;103100.78;;;3.16;100.00
18900;BME280;9582;52.018;6.306;2023-02-28T09:46:29;103101.72;;;3.18;100.00
18900;BME280;9582;52.018;6.306;2023-02-28T09:49:02;103095.75;;;3.22;100.00
18900;BME280;9582;52.018;6.306;2023-02-28T09:51:43;103091.38;;;3.18;100.00
18900;BME280;9582;52.018;6.306;2023-02-28T09:54:14;103092.41;;;3.26;100.00
18900;BME280;9582;52.018;6.306;2023-02-28T09:56:45;103095.06;;;3.31;100.00
18900;BME280;9582;52.018;6.306;2023-02-28T09:59:23;103092.47;;;3.29;100.00
18900;BME280;9582;52.018;6.306;2023-02-28T10:01:57;103086.63;;;3.38;100.00
18900;BME280;9582;52.018;6.306;2023-02-28T10:04:38;103094.53;;;3.45;100.00
18900;BME280;9582;52.018;6.306;2023-02-28T10:07:15;103091.19;;;3.49;100.00
18900;BME280;9582;52.018;6.306;2023-02-28T10:09:47;103096.56;;;3.60;100.00
18900;BME280;9582;52.018;6.306;2023-02-28T10:12:17;103089.88;;;3.71;100.00
18900;BME280;9582;52.018;6.306;2023-02-28T10:14:46;103098.78;;;3.84;100.00
18900;BME280;9582;52.018;6.306;2023-02-28T10:17:16;103098.84;;;3.90;100.00
18900;BME280;9582;52.018;6.306;2023-02-28T10:19:56;103094.38;;;3.81;100.00
18900;BME280;9582;52.018;6.306;2023-02-28T10:22:27;103081.59;;;3.89;100.00
18900;BME280;9582;52.018;6.306;2023-02-28T10:24:57;103088.41;;;3.84;100.00
18900;BME280;9582;52.018;6.306;2023-02-28T10:27:30;103086.78;;;3.89;100.00
18900;BME280;9582;52.018;6.306;2023-02-28T10:29:58;103074.75;;;3.92;100.00
18900;BME280;9582;52.018;6.306;2023-02-28T10:32:28;103073.84;;;3.90;100.00
18900;BME280;9582;52.018;6.306;2023-02-28T10:34:59;103072.97;;;3.88;100.00
18900;BME280;9582;52.018;6.306;2023-02-28T10:37:27;103078.31;;;3.99;100.00
18900;BME280;9582;52.018;6.306;2023-02-28T10:39:53;103088.84;;;4.08;100.00
18900;BME280;9582;52.018;6.306;2023-02-28T10:42:23;103084.56;;;4.08;100.00
18900;BME280;9582;52.018;6.306;2023-02-28T10:45:09;103081.09;;;4.09;100.00
18900;BME280;9582;52.018;6.306;2023-02-28T10:47:42;103088.03;;;4.09;100.00
18900;BME280;9582;52.018;6.306;2023-02-28T10:50:36;103075.22;;;4.18;100.00
18900;BME280;9582;52.018;6.306;2023-02-28T10:53:12;103076.13;;;4.20;100.00
18900;BME280;9582;52.018;6.306;2023-02-28T10:55:41;103074.72;;;4.37;100.00
18900;BME280;9582;52.018;6.306;2023-02-28T10:58:21;103077.25;;;4.34;100.00
18900;BME280;9582;52.018;6.306;2023-02-28T11:00:48;103077.91;;;4.24;100.00
18900;BME280;9582;52.018;6.306;2023-02-28T11:03:24;103065.78;;;4.22;100.00
18900;BME280;9582;52.018;6.306;2023-02-28T11:05:52;103070.25;;;4.30;100.00
18900;BME280;9582;52.018;6.306;2023-02-28T11:08:19;103060.13;;;4.44;100.00
18900;BME280;9582;52.018;6.306;2023-02-28T11:10:46;103063.06;;;4.65;100.00
18900;BME280;9582;52.018;6.306;2023-02-28T11:13:17;103070.88;;;4.70;100.00
18900;BME280;9582;52.018;6.306;2023-02-28T11:15:50;103060.47;;;4.65;100.00
18900;BME280;9582;52.018;6.306;2023-02-28T11:18:27;103045.94;;;4.76;100.00
18900;BME280;9582;52.018;6.306;2023-02-28T11:20:58;103060.63;;;4.77;100.00
18900;BME280;9582;52.018;6.306;2023-02-28T11:23:29;103052.78;;;4.73;100.00
18900;BME280;9582;52.018;6.306;2023-02-28T11:25:59;103053.59;;;4.68;100.00
18900;BME280;9582;52.018;6.306;2023-02-28T11:28:28;103053.59;;;4.68;100.00
18900;BME280;9582;52.018;6.306;2023-02-28T11:31:02;103057.25;;;4.81;100.00
18900;BME280;9582;52.018;6.306;2023-02-28T11:33:30;103054.84;;;4.93;100.00
18900;BME280;9582;52.018;6.306;2023-02-28T11:36:03;103050.53;;;4.94;100.00
18900;BME280;9582;52.018;6.306;2023-02-28T11:38:35;103045.25;;;4.88;100.00
18900;BME280;9582;52.018;6.306;2023-02-28T11:41:13;103047.75;;;4.82;100.00
18900;BME280;9582;52.018;6.306;2023-02-28T11:43:53;103046.81;;;4.77;100.00
18900;BME280;9582;52.018;6.306;2023-02-28T11:46:30;103044.41;;;4.90;100.00
18900;BME280;9582;52.018;6.306;2023-02-28T11:49:15;103046.22;;;4.97;100.00
18900;BME280;9582;52.018;6.306;2023-02-28T11:51:52;103030.09;;;5.18;100.00
18900;BME280;9582;52.018;6.306;2023-02-28T11:54:35;103042.31;;;5.28;100.00
18900;BME280;9582;52.018;6.306;2023-02-28T11:57:20;103038.13;;;5.39;100.00
18900;BME280;9582;52.018;6.306;2023-02-28T11:59:56;103048.50;;;5.38;100.00
18900;BME280;9582;52.018;6.306;2023-02-28T12:02:29;103033.66;;;5.26;100.00
18900;BME280;9582;52.018;6.306;2023-02-28T12:05:09;103027.75;;;5.38;100.00
18900;BME280;9582;52.018;6.306;2023-02-28T12:07:47;103025.31;;;5.51;100.00
18900;BME280;9582;52.018;6.306;2023-02-28T12:10:21;103022.72;;;5.51;100.00
18900;BME280;9582;52.018;6.306;2023-02-28T12:13:00;103018.34;;;5.47;100.00
18900;BME280;9582;52.018;6.306;2023-02-28T12:15:38;103014.78;;;5.39;100.00
18900;BME280;9582;52.018;6.306;2023-02-28T12:18:19;103014.03;;;5.51;100.00
18900;BME280;9582;52.018;6.306;2023-02-28T12:20:54;103017.59;;;5.56;100.00
18900;BME280;9582;52.018;6.306;2023-02-28T12:23:43;103011.53;;;5.57;100.00
18900;BME280;9582;52.018;6.306;2023-02-28T12:26:17;103004.72;;;5.68;100.00
18900;BME280;9582;52.018;6.306;2023-02-28T12:28:49;103002.19;;;5.72;100.00
18900;BME280;9582;52.018;6.306;2023-02-28T12:31:20;103011.50;;;5.52;100.00
18900;BME280;9582;52.018;6.306;2023-02-28T12:33:52;103006.94;;;5.35;100.00
18900;BME280;9582;52.018;6.306;2023-02-28T12:36:19;102999.84;;;5.18;100.00
18900;BME280;9582;52.018;6.306;2023-02-28T12:38:53;102998.09;;;5.17;100.00
18900;BME280;9582;52.018;6.306;2023-02-28T12:41:27;102994.59;;;5.12;100.00
18900;BME280;9582;52.018;6.306;2023-02-28T12:44:00;102991.91;;;5.05;100.00
18900;BME280;9582;52.018;6.306;2023-02-28T12:46:33;102985.84;;;5.06;100.00
18900;BME280;9582;52.018;6.306;2023-02-28T12:49:05;102985.09;;;5.13;100.00
18900;BME280;9582;52.018;6.306;2023-02-28T12:51:34;102978.31;;;5.24;100.00
18900;BME280;9582;52.018;6.306;2023-02-28T12:54:11;102980.03;;;5.25;100.00
18900;BME280;9582;52.018;6.306;2023-02-28T12:56:44;102975.59;;;5.13;100.00
18900;BME280;9582;52.018;6.306;2023-02-28T12:59:21;102967.84;;;5.19;100.00
18900;BME280;9582;52.018;6.306;2023-02-28T13:02:02;102977.38;;;5.20;100.00
18900;BME280;9582;52.018;6.306;2023-02-28T13:04:52;102968.00;;;5.32;100.00
18900;BME280;9582;52.018;6.306;2023-02-28T13:10:43;102962.19;;;5.54;100.00
18900;BME280;9582;52.018;6.306;2023-02-28T13:13:15;102952.66;;;5.50;100.00
18900;BME280;9582;52.018;6.306;2023-02-28T13:15:56;102956.13;;;5.52;100.00
18900;BME280;9582;52.018;6.306;2023-02-28T13:18:30;102956.97;;;5.51;100.00